createdAt,value
2023-03-13T00:03:40.034Z,9.50
2023-03-13T00:06:07.395Z,9.60
2023-03-13T00:08:34.068Z,9.60
2023-03-13T00:11:06.628Z,9.60
2023-03-13T00:13:33.456Z,9.60
2023-03-13T00:16:06.021Z,9.60
2023-03-13T00:18:33.065Z,9.60
2023-03-13T00:21:05.097Z,9.60
2023-03-13T00:23:33.237Z,9.60
2023-03-13T00:26:05.373Z,9.60
2023-03-13T00:28:33.498Z,9.60
2023-03-13T00:31:13.346Z,9.60
2023-03-13T00:33:44.958Z,9.60
2023-03-13T00:36:17.238Z,9.50
2023-03-13T00:38:44.412Z,9.50
2023-03-13T00:41:12.330Z,9.50
2023-03-13T00:43:40.480Z,9.50
2023-03-13T00:46:08.355Z,9.50
2023-03-13T00:48:35.915Z,9.50
2023-03-13T00:51:03.678Z,9.50
2023-03-13T00:53:30.768Z,9.50
2023-03-13T00:56:00.037Z,11.30
2023-03-13T00:58:29.557Z,9.50
2023-03-13T01:00:56.340Z,9.50
2023-03-13T01:03:25.723Z,9.50
2023-03-13T01:05:57.083Z,9.50
2023-03-13T01:08:26.581Z,9.60
2023-03-13T01:11:11.027Z,9.60
2023-03-13T01:16:16.929Z,9.60
2023-03-13T01:18:46.716Z,9.60
2023-03-13T01:21:14.864Z,9.60
2023-03-13T01:23:41.723Z,9.60
2023-03-13T01:26:10.173Z,9.60
2023-03-13T01:28:37.774Z,9.60
2023-03-13T01:31:17.404Z,9.70
2023-03-13T01:33:44.984Z,9.60
2023-03-13T01:36:12.381Z,9.60
2023-03-13T01:38:39.771Z,9.60
2023-03-13T01:41:08.142Z,9.70
2023-03-13T01:43:36.586Z,9.70
2023-03-13T01:46:18.477Z,9.70
2023-03-13T01:49:09.765Z,9.70
2023-03-13T01:51:58.250Z,9.70
2023-03-13T01:54:32.495Z,9.60
2023-03-13T01:57:11.974Z,9.70
2023-03-13T01:59:43.998Z,9.70
2023-03-13T02:02:11.690Z,9.70
2023-03-13T02:04:42.298Z,9.60
2023-03-13T02:07:18.364Z,9.70
2023-03-13T02:09:51.017Z,9.70
2023-03-13T02:12:34.127Z,9.60
2023-03-13T02:15:05.632Z,9.60
2023-03-13T02:17:35.384Z,9.60
2023-03-13T02:20:03.956Z,9.60
2023-03-13T02:22:43.111Z,9.60
2023-03-13T02:25:25.200Z,9.60
2023-03-13T02:28:03.260Z,9.60
2023-03-13T02:30:33.354Z,9.50
2023-03-13T02:33:01.326Z,9.50
2023-03-13T02:35:29.193Z,9.50
2023-03-13T02:38:02.808Z,9.50
2023-03-13T02:40:38.706Z,9.50
2023-03-13T02:43:10.740Z,9.50
2023-03-13T02:48:04.768Z,9.50
2023-03-13T02:50:31.396Z,9.50
2023-03-13T02:53:04.961Z,9.50
2023-03-13T02:55:39.400Z,9.40
2023-03-13T02:58:06.357Z,9.50
2023-03-13T03:00:35.930Z,10.30
2023-03-13T03:03:02.621Z,9.50
2023-03-13T03:05:29.342Z,9.60
2023-03-13T03:10:25.088Z,9.60
2023-03-13T03:12:52.148Z,9.50
2023-03-13T03:15:18.894Z,9.70
2023-03-13T03:20:14.842Z,9.70
2023-03-13T03:22:43.193Z,9.70
2023-03-13T03:25:10.124Z,9.70
2023-03-13T03:27:37.202Z,11.30
2023-03-13T03:30:07.334Z,9.70
2023-03-13T03:32:35.840Z,9.70
2023-03-13T03:35:02.698Z,9.70
2023-03-13T03:37:29.378Z,9.70
2023-03-13T03:42:23.649Z,9.70
2023-03-13T03:49:47.599Z,9.60
2023-03-13T03:52:15.671Z,9.60
2023-03-13T03:54:43.757Z,9.70
2023-03-13T03:57:10.611Z,9.70
2023-03-13T03:59:38.264Z,9.70
2023-03-13T04:02:09.358Z,9.70
2023-03-13T04:07:08.054Z,9.80
2023-03-13T04:12:04.075Z,9.80
2023-03-13T04:14:34.852Z,9.80
2023-03-13T04:17:04.761Z,9.80
2023-03-13T04:19:31.412Z,9.90
2023-03-13T04:21:58.420Z,9.90
2023-03-13T04:26:52.086Z,10.00
2023-03-13T04:29:19.935Z,9.90
2023-03-13T04:32:05.520Z,9.90
2023-03-13T04:34:51.062Z,9.90
2023-03-13T04:37:28.449Z,9.90
2023-03-13T04:40:21.369Z,9.90
2023-03-13T04:43:06.826Z,9.90
2023-03-13T04:45:58.958Z,9.90
2023-03-13T04:49:00.892Z,9.90
2023-03-13T04:52:06.606Z,10.00
2023-03-13T04:54:52.131Z,10.00
2023-03-13T04:57:44.916Z,10.10
2023-03-13T05:03:25.838Z,10.10
2023-03-13T05:05:58.303Z,10.10
2023-03-13T05:17:12.517Z,10.20
2023-03-13T05:22:34.710Z,10.30
2023-03-13T05:25:16.029Z,10.40
2023-03-13T05:27:57.018Z,10.40
2023-03-13T05:30:33.091Z,10.40
2023-03-13T05:33:08.910Z,10.50
2023-03-13T05:35:55.863Z,10.60
2023-03-13T05:38:41.561Z,10.70
2023-03-13T05:41:21.654Z,10.70
2023-03-13T05:44:00.333Z,10.80
2023-03-13T05:46:45.645Z,10.80
2023-03-13T05:49:35.129Z,10.90
2023-03-13T05:52:10.798Z,10.90
2023-03-13T05:54:47.677Z,10.90
2023-03-13T05:57:32.918Z,11.00
2023-03-13T06:00:09.336Z,11.00
2023-03-13T06:03:04.798Z,11.00
2023-03-13T06:05:36.374Z,10.80
2023-03-13T06:08:07.337Z,11.00
2023-03-13T06:10:34.072Z,11.00
2023-03-13T06:13:13.731Z,11.10
2023-03-13T06:15:56.589Z,11.00
2023-03-13T06:26:00.603Z,11.10
2023-03-13T06:38:26.931Z,11.20
2023-03-13T06:43:21.914Z,11.30
2023-03-13T06:45:48.609Z,11.20
2023-03-13T06:50:43.229Z,11.30
2023-03-13T06:53:16.898Z,11.40
2023-03-13T06:55:44.154Z,11.40
2023-03-13T07:03:22.806Z,11.40
2023-03-13T07:05:55.062Z,11.50
2023-03-13T07:08:21.706Z,11.40
2023-03-13T07:10:52.187Z,11.50
2023-03-13T07:13:22.553Z,11.50
2023-03-13T07:18:16.333Z,11.60
2023-03-13T07:30:31.567Z,11.60
2023-03-13T07:32:58.634Z,11.60
2023-03-13T07:42:46.690Z,11.70
2023-03-13T07:45:13.482Z,11.80
2023-03-13T07:50:08.403Z,11.80
2023-03-13T07:57:29.214Z,11.90
2023-03-13T07:59:55.831Z,11.90
2023-03-13T08:04:53.032Z,12.00
2023-03-13T08:07:19.868Z,12.00
2023-03-13T08:09:46.497Z,12.10
2023-03-13T08:12:13.118Z,12.10
2023-03-13T08:24:28.097Z,12.30
2023-03-13T08:29:21.737Z,12.40
2023-03-13T08:31:51.384Z,12.50
2023-03-13T08:34:18.933Z,12.40
2023-03-13T08:36:46.225Z,12.50
2023-03-13T08:39:17.886Z,12.60
2023-03-13T08:44:14.156Z,12.60
2023-03-13T08:46:40.916Z,12.70
2023-03-13T08:49:08.305Z,12.80
2023-03-13T08:51:35.407Z,12.80
2023-03-13T08:54:03.416Z,12.80
2023-03-13T08:56:31.443Z,12.90
2023-03-13T08:59:00.782Z,12.90
2023-03-13T09:01:30.873Z,12.90
2023-03-13T09:06:25.773Z,13.00
2023-03-13T09:11:21.574Z,13.10
2023-03-13T09:13:50.156Z,13.10
2023-03-13T09:16:22.394Z,13.10
2023-03-13T09:18:50.309Z,13.20
2023-03-13T09:21:21.937Z,13.20
2023-03-13T09:23:49.152Z,13.20
2023-03-13T09:26:17.156Z,13.20
2023-03-13T09:28:43.825Z,13.20
2023-03-13T09:31:25.214Z,13.00
2023-03-13T09:36:22.150Z,13.30
2023-03-13T09:38:50.503Z,13.30
2023-03-13T09:41:17.113Z,13.30
2023-03-13T09:44:08.601Z,13.30
2023-03-13T09:46:57.275Z,13.30
2023-03-13T09:49:44.061Z,13.30
2023-03-13T09:52:13.778Z,13.30
2023-03-13T09:54:52.015Z,13.40
2023-03-13T09:57:35.433Z,13.40
2023-03-13T10:00:14.741Z,13.40
2023-03-13T10:02:47.136Z,13.40
2023-03-13T10:05:26.224Z,13.40
2023-03-13T10:08:12.308Z,13.40
2023-03-13T10:11:09.691Z,13.40
2023-03-13T10:14:01.397Z,13.50
2023-03-13T10:16:31.276Z,13.60
2023-03-13T10:18:59.722Z,13.70
2023-03-13T10:21:33.655Z,13.80
2023-03-13T10:24:14.299Z,13.80
2023-03-13T10:26:40.892Z,13.90
2023-03-13T10:29:28.529Z,14.00
2023-03-13T10:32:07.022Z,14.00
2023-03-13T10:35:00.827Z,14.00
2023-03-13T10:37:33.216Z,14.10
2023-03-13T10:40:23.084Z,14.10
2023-03-13T10:42:52.528Z,14.10
2023-03-13T10:45:24.961Z,14.10
2023-03-13T10:47:56.891Z,14.10
2023-03-13T10:50:25.569Z,14.20
2023-03-13T10:52:52.858Z,14.20
2023-03-13T10:55:24.764Z,14.20
2023-03-13T10:58:02.775Z,14.10
2023-03-13T11:00:37.465Z,14.20
2023-03-13T11:03:18.205Z,14.10
2023-03-13T11:05:55.062Z,14.20
2023-03-13T11:08:27.662Z,14.30
2023-03-13T11:11:06.009Z,14.30
2023-03-13T11:13:43.566Z,14.30
2023-03-13T11:16:40.551Z,14.40
2023-03-13T11:19:13.358Z,14.40
2023-03-13T11:22:10.130Z,14.40
2023-03-13T11:27:32.399Z,14.50
2023-03-13T11:30:23.264Z,14.60
2023-03-13T11:32:55.079Z,14.70
2023-03-13T11:35:43.421Z,14.70
2023-03-13T11:38:32.721Z,14.80
2023-03-13T11:41:32.781Z,14.90
2023-03-13T11:44:18.237Z,14.90
2023-03-13T11:47:05.160Z,15.00
2023-03-13T11:49:49.591Z,15.10
2023-03-13T11:52:52.620Z,15.20
2023-03-13T11:55:43.129Z,15.10
2023-03-13T11:58:25.858Z,15.20
2023-03-13T12:01:01.397Z,15.40
2023-03-13T12:03:33.906Z,15.30
2023-03-13T12:06:02.383Z,15.30
2023-03-13T12:08:50.942Z,15.30
2023-03-13T12:11:29.988Z,15.30
2023-03-13T12:14:06.536Z,15.40
2023-03-13T12:16:56.903Z,15.40
2023-03-13T12:19:37.356Z,15.40
2023-03-13T12:22:16.530Z,15.50
2023-03-13T12:24:58.168Z,15.50
2023-03-13T12:27:32.750Z,15.50
2023-03-13T12:30:07.299Z,15.60
2023-03-13T12:33:04.898Z,15.60
2023-03-13T12:35:33.687Z,15.60
2023-03-13T12:38:24.690Z,15.70
2023-03-13T12:41:12.310Z,15.70
2023-03-13T12:43:44.134Z,15.80
2023-03-13T12:46:33.633Z,15.90
2023-03-13T12:49:09.130Z,16.00
2023-03-13T12:52:02.362Z,16.00
2023-03-13T12:54:47.227Z,16.10
2023-03-13T12:57:41.997Z,16.10
2023-03-13T13:00:20.158Z,16.10
2023-03-13T13:05:21.866Z,16.20
2023-03-13T13:07:56.446Z,16.20
2023-03-13T13:10:26.183Z,16.20
2023-03-13T13:13:14.849Z,16.20
2023-03-13T13:15:58.917Z,16.20
2023-03-13T13:18:28.553Z,16.20
2023-03-13T13:21:07.136Z,16.20
2023-03-13T13:26:36.708Z,16.20
2023-03-13T13:29:12.507Z,16.30
2023-03-13T13:31:56.925Z,16.30
2023-03-13T13:34:52.674Z,16.40
2023-03-13T13:39:49.924Z,16.40
2023-03-13T13:42:31.672Z,16.40
2023-03-13T13:45:14.777Z,16.50
2023-03-13T13:47:47.984Z,16.50
2023-03-13T13:50:26.760Z,16.60
2023-03-13T13:55:29.783Z,16.50
2023-03-13T13:58:06.257Z,16.60
2023-03-13T14:00:43.072Z,16.50
2023-03-13T14:03:28.115Z,16.50
2023-03-13T14:06:17.371Z,16.50
2023-03-13T14:08:46.894Z,16.60
2023-03-13T14:11:38.705Z,16.50
2023-03-13T14:14:20.121Z,16.50
2023-03-13T14:16:52.252Z,16.40
2023-03-13T14:19:50.092Z,16.50
2023-03-13T14:24:57.381Z,16.60
2023-03-13T14:27:24.029Z,16.60
2023-03-13T14:30:05.534Z,16.60
2023-03-13T14:37:40.841Z,16.60
2023-03-13T14:40:10.237Z,16.60
2023-03-13T14:42:47.156Z,16.60
2023-03-13T14:45:16.124Z,16.60
2023-03-13T14:50:15.170Z,16.60
2023-03-13T14:52:49.601Z,16.60
2023-03-13T14:55:40.270Z,16.40
2023-03-13T14:58:25.105Z,16.60
2023-03-13T15:06:09.760Z,16.60
2023-03-13T15:08:42.203Z,16.50
2023-03-13T15:11:20.188Z,16.50
2023-03-13T15:16:21.497Z,16.40
2023-03-13T15:18:49.668Z,16.40
2023-03-13T15:23:51.263Z,16.40
2023-03-13T15:26:18.209Z,16.40
2023-03-13T15:31:13.443Z,16.40
2023-03-13T15:33:40.787Z,16.40
2023-03-13T15:48:27.566Z,16.00
2023-03-13T15:50:58.375Z,15.90
2023-03-13T15:53:30.053Z,15.90
2023-03-13T15:56:01.405Z,15.70
2023-03-13T15:58:29.655Z,15.70
2023-03-13T16:00:57.680Z,15.70
2023-03-13T16:03:26.632Z,15.60
2023-03-13T16:05:54.564Z,15.40
2023-03-13T16:08:34.674Z,15.40
2023-03-13T16:18:25.480Z,15.10
2023-03-13T16:20:52.770Z,15.10
2023-03-13T16:25:48.346Z,15.10
2023-03-13T16:28:15.730Z,15.10
2023-03-13T16:38:11.533Z,15.40
2023-03-13T16:40:38.266Z,15.90
2023-03-13T16:50:37.623Z,16.60
2023-03-13T16:53:04.567Z,16.60
2023-03-13T17:00:31.957Z,16.00
2023-03-13T17:02:59.368Z,15.80
2023-03-13T17:05:27.052Z,15.60
2023-03-13T17:10:32.705Z,15.30
2023-03-13T17:15:28.621Z,15.20
2023-03-13T17:20:25.512Z,15.00
2023-03-13T17:22:52.622Z,14.80
2023-03-13T17:30:26.390Z,14.80
2023-03-13T17:35:21.698Z,14.60
2023-03-13T17:37:48.977Z,14.60
2023-03-13T17:42:43.343Z,14.40
2023-03-13T17:45:11.174Z,14.50
2023-03-13T17:50:13.762Z,14.50
2023-03-13T17:55:08.354Z,14.40
2023-03-13T18:05:06.307Z,14.20
2023-03-13T18:17:23.240Z,14.00
2023-03-13T18:19:50.768Z,14.00
2023-03-13T18:22:21.441Z,14.00
2023-03-13T18:27:20.988Z,13.90
2023-03-13T18:29:49.133Z,13.90
2023-03-13T18:32:17.340Z,13.90
2023-03-13T18:37:32.998Z,13.90
2023-03-13T18:40:00.181Z,13.80
2023-03-13T18:42:27.613Z,13.50
2023-03-13T18:44:55.413Z,13.00
2023-03-13T18:47:24.957Z,13.60
2023-03-13T18:49:51.676Z,13.60
2023-03-13T18:54:45.516Z,13.40
2023-03-13T18:57:14.702Z,13.30
2023-03-13T19:02:17.108Z,13.20
2023-03-13T19:04:44.873Z,13.00
2023-03-13T19:07:14.423Z,13.00
2023-03-13T19:12:12.553Z,12.90
2023-03-13T19:17:28.875Z,12.80
2023-03-13T19:19:58.653Z,12.80
2023-03-13T19:22:26.244Z,12.80
2023-03-13T19:24:52.906Z,12.80
2023-03-13T19:29:46.687Z,12.70
2023-03-13T19:32:18.295Z,12.70
2023-03-13T19:37:14.098Z,12.60
2023-03-13T19:44:36.297Z,12.60
2023-03-13T19:47:04.521Z,12.60
2023-03-13T19:49:31.323Z,12.70
2023-03-13T19:59:26.658Z,12.60
2023-03-13T20:09:17.762Z,12.50
2023-03-13T20:16:38.972Z,12.50
2023-03-13T20:19:06.225Z,12.50
2023-03-13T20:21:35.800Z,12.50
2023-03-13T20:28:57.847Z,12.40
2023-03-13T20:31:27.878Z,12.40
2023-03-13T20:33:55.814Z,12.30
2023-03-13T20:36:23.727Z,12.30
2023-03-13T20:48:42.371Z,12.30
2023-03-13T20:51:09.611Z,12.30
2023-03-13T20:53:40.411Z,12.20
2023-03-13T20:56:08.277Z,12.20
2023-03-13T20:58:35.840Z,12.20
2023-03-13T21:01:03.969Z,12.20
2023-03-13T21:06:13.572Z,12.10
2023-03-13T21:11:20.133Z,12.10
2023-03-13T21:13:47.605Z,12.10
2023-03-13T21:21:13.135Z,11.90
2023-03-13T21:28:34.493Z,11.90
2023-03-13T21:31:11.308Z,11.90
2023-03-13T21:45:59.241Z,11.80
2023-03-13T21:50:53.720Z,11.70
2023-03-13T21:55:51.741Z,11.70
2023-03-13T21:58:18.675Z,11.70
2023-03-13T22:03:12.560Z,11.70
2023-03-13T22:05:43.412Z,11.70
2023-03-13T22:10:37.967Z,11.70
2023-03-13T22:13:05.912Z,11.70
2023-03-13T22:20:27.348Z,11.70
2023-03-13T22:25:21.339Z,11.60
2023-03-13T22:30:15.244Z,11.60
2023-03-13T22:35:09.633Z,11.50
2023-03-13T22:40:04.117Z,11.50
2023-03-13T22:44:57.932Z,11.50
2023-03-13T22:52:21.277Z,11.60
2023-03-13T22:59:42.025Z,11.60
2023-03-13T23:14:28.873Z,11.50
2023-03-13T23:26:46.038Z,11.40
2023-03-13T23:31:40.694Z,11.50
2023-03-13T23:41:29.463Z,11.50
2023-03-13T23:46:26.807Z,11.50
2023-03-13T23:48:54.460Z,11.50
2023-03-13T23:56:15.345Z,11.50
